createdAt,value
2023-03-30T00:01:40.271Z,19.824
2023-03-30T00:16:42.631Z,21.783
2023-03-30T00:31:44.797Z,20.746
2023-03-30T00:46:46.922Z,21.424
2023-03-30T01:01:49.217Z,25.078
2023-03-30T01:16:51.458Z,27.554
2023-03-30T01:31:53.755Z,30.386
2023-03-30T01:46:55.953Z,28.424
2023-03-30T02:01:58.111Z,31.862
2023-03-30T02:17:00.257Z,32.088
2023-03-30T02:32:02.486Z,33.339
2023-03-30T02:47:04.590Z,33.526
2023-03-30T03:02:06.860Z,32.922
2023-03-30T03:17:09.093Z,34.375
2023-03-30T03:32:11.231Z,37.211
2023-03-30T03:47:15.277Z,36.951
2023-03-30T04:02:18.660Z,38.133
2023-03-30T04:17:20.820Z,38.813
2023-03-30T04:32:23.123Z,37.905
2023-03-30T04:47:25.312Z,40.897
2023-03-30T05:02:27.689Z,41.479
2023-03-30T05:17:30.025Z,42.588
2023-03-30T05:32:32.227Z,44.424
2023-03-30T05:47:34.431Z,42.523
2023-03-30T06:02:36.723Z,43.79
2023-03-30T06:17:38.894Z,43.72
2023-03-30T06:32:41.108Z,44.125
2023-03-30T06:47:43.332Z,46.075
2023-03-30T07:02:45.883Z,47.883
2023-03-30T07:17:48.223Z,48.379
2023-03-30T07:32:50.632Z,47.418
2023-03-30T07:47:52.976Z,47.773
2023-03-30T08:02:55.291Z,47.588
2023-03-30T08:17:57.653Z,50.671
2023-03-30T08:32:59.853Z,48.071
2023-03-30T08:48:02.397Z,51.592
2023-03-30T09:03:04.731Z,52.382
2023-03-30T09:18:06.952Z,55.299
2023-03-30T09:33:09.078Z,55.343
2023-03-30T09:48:11.642Z,53.795
2023-03-30T10:03:14.072Z,53.075
2023-03-30T10:18:16.301Z,51.747
2023-03-30T10:33:18.403Z,52.596
2023-03-30T10:48:20.574Z,52.79
2023-03-30T11:03:22.821Z,53.014
2023-03-30T11:18:25.004Z,53.287
2023-03-30T11:33:27.136Z,51.216
2023-03-30T11:48:29.203Z,52.592
2023-03-30T12:03:31.386Z,52.297
2023-03-30T12:18:33.841Z,51.791
2023-03-30T12:33:36.049Z,51.691
2023-03-30T12:48:38.203Z,53.486
2023-03-30T13:03:40.290Z,53.275
2023-03-30T13:18:42.477Z,56.501
2023-03-30T13:33:44.706Z,52.42
2023-03-30T13:48:46.866Z,57.869
2023-03-30T14:03:49.233Z,52.488
2023-03-30T14:18:51.438Z,52.687
2023-03-30T14:33:53.718Z,52.482
2023-03-30T14:48:55.786Z,51.096
2023-03-30T15:03:57.931Z,50.333
2023-03-30T15:19:00.128Z,55.791
2023-03-30T15:34:02.309Z,42.118
2023-03-30T15:49:04.440Z,53.917
2023-03-30T16:04:06.637Z,56.092
2023-03-30T16:19:08.808Z,55
2023-03-30T16:34:10.906Z,44.791
2023-03-30T16:49:12.994Z,47.4
2023-03-30T17:04:15.099Z,46.742
2023-03-30T17:19:17.175Z,43.504
2023-03-30T17:34:19.419Z,38.857
2023-03-30T17:49:21.596Z,37.694
2023-03-30T18:04:23.698Z,35.838
2023-03-30T18:19:25.882Z,36.663
2023-03-30T18:34:27.956Z,35.846
2023-03-30T18:49:30.105Z,36.551
2023-03-30T19:04:32.265Z,34.261
2023-03-30T19:19:34.410Z,36.153
2023-03-30T19:34:36.521Z,34.27
2023-03-30T19:49:38.626Z,32.158
2023-03-30T20:04:40.757Z,29.277
2023-03-30T20:19:42.877Z,28.5
2023-03-30T20:34:44.999Z,25.701
2023-03-30T20:49:47.100Z,25.19
2023-03-30T21:04:49.165Z,25.445
2023-03-30T21:19:51.390Z,22.635
2023-03-30T21:34:53.461Z,22.408
2023-03-30T21:49:55.600Z,21.751
2023-03-30T22:04:57.748Z,19.329
2023-03-30T22:19:59.881Z,19.094
2023-03-30T22:35:02.003Z,21.254
2023-03-30T22:50:04.173Z,20.403
2023-03-30T23:05:06.262Z,19.654
2023-03-30T23:20:08.354Z,20.94
2023-03-30T23:35:10.439Z,21.727
2023-03-30T23:50:12.565Z,20.727
